createdAt,value
2023-05-05T00:03:20.566Z,6.23
2023-05-05T00:07:24.592Z,5.70
2023-05-05T00:11:28.695Z,6.17
2023-05-05T00:15:34.517Z,5.93
2023-05-05T00:19:38.754Z,5.83
2023-05-05T00:23:42.765Z,5.43
2023-05-05T00:27:46.981Z,6.40
2023-05-05T00:31:53.960Z,6.23
2023-05-05T00:35:58.156Z,5.60
2023-05-05T00:40:02.185Z,5.90
2023-05-05T00:44:06.345Z,6.60
2023-05-05T00:48:11.819Z,6.23
2023-05-05T00:52:16.295Z,5.60
2023-05-05T00:56:21.930Z,6.43
2023-05-05T01:00:26.168Z,5.90
2023-05-05T01:04:31.358Z,6.00
2023-05-05T01:08:47.063Z,6.30
2023-05-05T01:12:57.573Z,6.87
2023-05-05T01:17:06.013Z,6.33
2023-05-05T01:21:15.586Z,6.37
2023-05-05T01:26:04.373Z,5.30
2023-05-05T01:30:22.476Z,6.67
2023-05-05T01:34:36.079Z,5.00
2023-05-05T01:38:48.203Z,6.03
2023-05-05T01:42:54.412Z,5.67
2023-05-05T01:46:59.336Z,6.63
2023-05-05T01:51:06.941Z,6.17
2023-05-05T01:55:12.634Z,6.20
2023-05-05T01:59:17.925Z,6.20
2023-05-05T02:03:24.632Z,7.30
2023-05-05T02:07:31.745Z,7.27
2023-05-05T02:11:37.415Z,6.40
2023-05-05T02:15:42.287Z,6.60
2023-05-05T02:19:49.382Z,6.13
2023-05-05T02:23:54.726Z,5.70
2023-05-05T02:28:00.127Z,5.90
2023-05-05T02:32:07.629Z,6.00
2023-05-05T02:36:17.529Z,7.10
2023-05-05T02:40:25.625Z,6.60
2023-05-05T02:44:30.712Z,6.13
2023-05-05T02:48:35.279Z,6.70
2023-05-05T02:52:39.572Z,6.67
2023-05-05T02:56:49.728Z,6.20
2023-05-05T03:01:03.771Z,5.87
2023-05-05T03:05:12.255Z,6.67
2023-05-05T03:09:22.868Z,6.30
2023-05-05T03:13:29.813Z,6.37
2023-05-05T03:17:35.726Z,5.80
2023-05-05T03:21:39.815Z,6.03
2023-05-05T03:25:44.651Z,7.20
2023-05-05T03:29:49.701Z,6.60
2023-05-05T03:33:54.082Z,6.60
2023-05-05T03:37:57.620Z,6.60
2023-05-05T03:42:01.316Z,6.80
2023-05-05T03:46:07.034Z,5.97
2023-05-05T03:50:10.971Z,5.77
2023-05-05T03:54:14.728Z,6.73
2023-05-05T03:58:18.459Z,5.83
2023-05-05T04:02:23.629Z,5.60
2023-05-05T04:06:27.780Z,6.10
2023-05-05T04:10:31.735Z,7.17
2023-05-05T04:14:36.030Z,7.10
2023-05-05T04:18:41.092Z,6.80
2023-05-05T04:22:45.202Z,6.60
2023-05-05T04:26:48.984Z,8.43
2023-05-05T04:30:52.573Z,8.90
2023-05-05T04:34:57.940Z,7.63
2023-05-05T04:39:01.491Z,8.03
2023-05-05T04:43:07.185Z,7.40
2023-05-05T04:47:13.978Z,6.67
2023-05-05T04:51:21.176Z,7.43
2023-05-05T04:55:24.883Z,7.50
2023-05-05T04:59:28.600Z,8.40
2023-05-05T05:03:32.422Z,8.70
2023-05-05T05:07:38.502Z,7.80
2023-05-05T05:11:41.851Z,7.57
2023-05-05T05:15:46.783Z,8.80
2023-05-05T05:19:51.328Z,8.43
2023-05-05T05:23:56.049Z,8.10
2023-05-05T05:28:09.664Z,7.40
2023-05-05T05:32:14.291Z,7.83
2023-05-05T05:36:17.833Z,9.07
2023-05-05T05:40:23.446Z,7.97
2023-05-05T05:44:26.834Z,7.50
2023-05-05T05:48:30.505Z,8.70
2023-05-05T05:52:36.191Z,8.77
2023-05-05T05:56:45.098Z,7.37
2023-05-05T06:00:49.846Z,8.93
2023-05-05T06:04:53.716Z,7.23
2023-05-05T06:08:57.125Z,7.10
2023-05-05T06:13:02.911Z,6.40
2023-05-05T06:17:06.498Z,6.20
2023-05-05T06:21:09.873Z,6.60
2023-05-05T06:25:13.097Z,6.27
2023-05-05T06:29:20.297Z,5.50
2023-05-05T06:33:23.810Z,5.37
2023-05-05T06:37:27.011Z,5.90
2023-05-05T06:41:30.144Z,6.27
2023-05-05T06:45:35.153Z,5.67
2023-05-05T06:49:38.572Z,5.30
2023-05-05T06:53:42.802Z,5.30
2023-05-05T06:57:45.958Z,5.63
2023-05-05T07:01:51.086Z,5.43
2023-05-05T07:05:55.016Z,5.10
2023-05-05T07:09:58.920Z,6.07
2023-05-05T07:14:03.518Z,5.20
2023-05-05T07:18:08.114Z,4.90
2023-05-05T07:22:11.499Z,4.90
2023-05-05T07:26:16.324Z,4.20
2023-05-05T07:30:21.477Z,5.57
2023-05-05T07:34:26.744Z,6.00
2023-05-05T07:38:29.901Z,5.40
2023-05-05T07:42:33.065Z,4.87
2023-05-05T07:46:36.584Z,4.70
2023-05-05T07:50:42.236Z,5.27
2023-05-05T07:54:45.526Z,5.67
2023-05-05T07:58:48.628Z,5.90
2023-05-05T08:02:52.480Z,5.33
2023-05-05T08:06:57.117Z,5.50
2023-05-05T08:11:01.125Z,5.70
2023-05-05T08:15:05.142Z,6.00
2023-05-05T08:19:27.702Z,6.30
2023-05-05T08:23:34.974Z,5.73
2023-05-05T08:27:39.326Z,5.50
2023-05-05T08:31:42.848Z,5.17
2023-05-05T08:35:46.851Z,4.30
2023-05-05T08:39:51.869Z,5.20
2023-05-05T08:43:56.474Z,5.70
2023-05-05T08:48:04.813Z,5.80
2023-05-05T08:52:12.364Z,4.77
2023-05-05T08:56:17.593Z,5.53
2023-05-05T09:00:22.545Z,5.20
2023-05-05T09:04:27.221Z,4.70
2023-05-05T09:08:31.560Z,5.03
2023-05-05T09:12:40.495Z,5.40
2023-05-05T09:16:44.756Z,5.73
2023-05-05T09:20:48.712Z,6.07
2023-05-05T09:24:56.991Z,5.80
2023-05-05T09:29:02.524Z,6.27
2023-05-05T09:33:07.397Z,5.80
2023-05-05T09:37:10.960Z,6.17
2023-05-05T09:41:15.485Z,5.73
2023-05-05T09:45:29.950Z,6.27
2023-05-05T09:49:33.414Z,4.90
2023-05-05T09:53:41.683Z,4.73
2023-05-05T09:57:47.351Z,5.20
2023-05-05T10:01:53.372Z,5.60
2023-05-05T10:05:59.052Z,4.80
2023-05-05T10:10:03.404Z,5.70
2023-05-05T10:14:08.829Z,5.00
2023-05-05T10:18:15.952Z,5.33
2023-05-05T10:22:23.325Z,5.60
2023-05-05T10:26:29.329Z,5.10
2023-05-05T10:30:33.920Z,4.97
2023-05-05T10:34:51.132Z,4.63
2023-05-05T10:38:58.299Z,4.70
2023-05-05T10:43:02.026Z,4.40
2023-05-05T10:47:06.356Z,4.30
2023-05-05T10:51:39.989Z,4.50
2023-05-05T10:55:53.669Z,4.93
2023-05-05T10:59:57.950Z,4.70
2023-05-05T11:04:21.867Z,4.90
2023-05-05T11:08:29.611Z,4.70
2023-05-05T11:12:36.005Z,4.13
2023-05-05T11:16:48.230Z,5.10
2023-05-05T11:21:19.221Z,3.67
2023-05-05T11:25:51.672Z,4.57
2023-05-05T11:30:10.069Z,5.43
2023-05-05T11:34:29.507Z,4.67
2023-05-05T11:39:05.276Z,5.00
2023-05-05T11:43:11.000Z,4.90
2023-05-05T11:47:31.675Z,5.50
2023-05-05T11:51:35.680Z,5.10
2023-05-05T11:55:41.165Z,4.00
2023-05-05T11:59:59.069Z,4.60
2023-05-05T12:04:02.700Z,4.10
2023-05-05T12:08:06.597Z,4.50
2023-05-05T12:12:10.049Z,4.13
2023-05-05T12:16:16.185Z,4.40
2023-05-05T12:20:19.847Z,4.60
2023-05-05T12:24:23.548Z,4.50
2023-05-05T12:28:26.977Z,5.00
2023-05-05T12:32:32.748Z,4.60
2023-05-05T12:36:37.663Z,4.33
2023-05-05T12:40:55.888Z,3.73
2023-05-05T12:44:59.715Z,4.90
2023-05-05T12:49:06.869Z,4.40
2023-05-05T12:53:10.292Z,4.10
2023-05-05T12:57:13.781Z,5.33
2023-05-05T13:01:17.260Z,4.60
2023-05-05T13:05:33.536Z,4.53
2023-05-05T13:09:36.949Z,4.20
2023-05-05T13:13:40.504Z,4.37
2023-05-05T13:17:43.745Z,3.97
2023-05-05T13:21:49.190Z,4.10
2023-05-05T13:25:53.035Z,3.90
2023-05-05T13:29:56.339Z,4.40
2023-05-05T13:34:00.172Z,3.83
2023-05-05T13:38:05.326Z,4.40
2023-05-05T13:42:09.285Z,3.70
2023-05-05T13:46:19.978Z,4.17
2023-05-05T13:50:24.412Z,4.07
2023-05-05T13:54:29.326Z,4.20
2023-05-05T13:58:32.975Z,3.90
2023-05-05T14:02:36.311Z,4.00
2023-05-05T14:06:39.697Z,4.40
2023-05-05T14:10:47.588Z,4.20
2023-05-05T14:14:51.910Z,4.53
2023-05-05T14:18:55.526Z,3.60
2023-05-05T14:22:59.904Z,3.90
2023-05-05T14:27:05.856Z,4.10
2023-05-05T14:31:09.924Z,3.80
2023-05-05T14:35:13.720Z,4.03
2023-05-05T14:39:17.664Z,4.30
2023-05-05T14:43:24.544Z,3.90
2023-05-05T14:47:28.077Z,3.43
2023-05-05T14:51:32.164Z,4.33
2023-05-05T14:55:35.853Z,3.93
2023-05-05T14:59:42.026Z,4.60
2023-05-05T15:03:45.876Z,4.20
2023-05-05T15:07:49.488Z,4.40
2023-05-05T15:11:52.684Z,3.77
2023-05-05T15:15:58.221Z,4.13
2023-05-05T15:20:01.998Z,4.13
2023-05-05T15:24:06.078Z,4.10
2023-05-05T15:28:09.622Z,4.63
2023-05-05T15:32:15.807Z,4.40
2023-05-05T15:36:22.889Z,4.63
2023-05-05T15:40:26.786Z,4.43
2023-05-05T15:44:30.103Z,5.33
2023-05-05T15:48:35.839Z,5.10
2023-05-05T15:52:39.614Z,5.47
2023-05-05T15:56:43.258Z,5.20
2023-05-05T16:00:46.559Z,5.43
2023-05-05T16:04:52.032Z,5.07
2023-05-05T16:08:58.657Z,5.30
2023-05-05T16:13:02.470Z,5.03
2023-05-05T16:17:06.219Z,4.70
2023-05-05T16:21:11.491Z,5.37
2023-05-05T16:25:18.438Z,4.83
2023-05-05T16:29:22.034Z,4.80
2023-05-05T16:33:25.511Z,5.43
2023-05-05T16:37:34.314Z,4.63
2023-05-05T16:41:37.557Z,4.03
2023-05-05T16:45:41.420Z,5.43
2023-05-05T16:49:44.930Z,4.80
2023-05-05T16:53:52.581Z,4.80
2023-05-05T16:57:55.916Z,5.10
2023-05-05T17:01:59.320Z,3.63
2023-05-05T17:06:03.244Z,4.97
2023-05-05T17:10:10.429Z,4.60
2023-05-05T17:14:14.261Z,4.37
2023-05-05T17:18:20.223Z,4.80
2023-05-05T17:22:23.961Z,4.43
2023-05-05T17:26:30.973Z,5.57
2023-05-05T17:30:34.463Z,4.67
2023-05-05T17:34:38.006Z,4.70
2023-05-05T17:38:41.557Z,5.20
2023-05-05T17:42:47.866Z,5.03
2023-05-05T17:46:51.300Z,5.40
2023-05-05T17:50:54.845Z,5.43
2023-05-05T17:54:58.599Z,4.83
2023-05-05T17:59:03.977Z,5.20
2023-05-05T18:03:08.392Z,5.10
2023-05-05T18:07:14.863Z,5.50
2023-05-05T18:11:19.525Z,5.73
2023-05-05T18:15:26.447Z,5.07
2023-05-05T18:19:30.125Z,5.10
2023-05-05T18:23:33.441Z,5.63
2023-05-05T18:27:37.690Z,4.70
2023-05-05T18:31:43.447Z,5.67
2023-05-05T18:35:48.289Z,5.40
2023-05-05T18:39:52.561Z,6.00
2023-05-05T18:43:57.374Z,5.47
2023-05-05T18:48:02.990Z,5.67
2023-05-05T18:52:07.356Z,5.37
2023-05-05T18:56:11.942Z,6.23
2023-05-05T19:00:17.470Z,5.83
2023-05-05T19:04:30.592Z,6.43
2023-05-05T19:08:36.294Z,6.40
2023-05-05T19:12:41.187Z,6.90
2023-05-05T19:16:46.224Z,6.20
2023-05-05T19:20:53.626Z,8.13
2023-05-05T19:24:58.604Z,6.60
2023-05-05T19:29:08.479Z,6.63
2023-05-05T19:33:12.730Z,6.53
2023-05-05T19:37:18.756Z,5.63
2023-05-05T19:41:22.632Z,6.20
2023-05-05T19:45:27.331Z,6.97
2023-05-05T19:49:35.249Z,6.50
2023-05-05T19:53:43.375Z,6.93
2023-05-05T19:57:49.724Z,7.00
2023-05-05T20:01:53.984Z,7.00
2023-05-05T20:05:59.078Z,7.40
2023-05-05T20:10:05.192Z,7.90
2023-05-05T20:14:09.575Z,8.33
2023-05-05T20:18:13.874Z,6.83
2023-05-05T20:22:17.999Z,7.40
2023-05-05T20:26:25.157Z,7.40
2023-05-05T20:30:29.227Z,7.57
2023-05-05T20:34:33.280Z,7.37
2023-05-05T20:38:38.177Z,7.23
2023-05-05T20:42:46.043Z,8.20
2023-05-05T20:46:53.248Z,7.30
2023-05-05T20:50:59.172Z,7.30
2023-05-05T20:55:02.721Z,7.07
2023-05-05T20:59:08.129Z,7.57
2023-05-05T21:03:11.762Z,8.47
2023-05-05T21:07:15.507Z,7.70
2023-05-05T21:11:20.045Z,8.23
2023-05-05T21:15:26.757Z,6.90
2023-05-05T21:19:31.442Z,8.50
2023-05-05T21:23:35.901Z,8.70
2023-05-05T21:27:40.348Z,9.57
2023-05-05T21:31:45.681Z,8.60
2023-05-05T21:35:49.165Z,10.53
2023-05-05T21:39:52.696Z,7.50
2023-05-05T21:43:56.483Z,8.57
2023-05-05T21:48:01.722Z,8.30
2023-05-05T21:52:05.059Z,8.50
2023-05-05T21:56:08.803Z,8.70
2023-05-05T22:00:16.760Z,8.90
2023-05-05T22:04:22.685Z,8.40
2023-05-05T22:08:27.011Z,9.40
2023-05-05T22:12:30.549Z,8.63
2023-05-05T22:16:34.333Z,8.20
2023-05-05T22:20:44.059Z,9.27
2023-05-05T22:24:47.821Z,10.43
2023-05-05T22:28:51.437Z,9.30
2023-05-05T22:32:55.269Z,8.70
2023-05-05T22:37:01.283Z,10.10
2023-05-05T22:41:04.515Z,9.20
2023-05-05T22:45:11.185Z,8.87
2023-05-05T22:49:15.087Z,9.23
2023-05-05T22:53:20.032Z,10.37
2023-05-05T22:57:23.537Z,9.97
2023-05-05T23:01:27.070Z,8.90
2023-05-05T23:05:30.690Z,9.40
2023-05-05T23:09:35.297Z,9.50
2023-05-05T23:13:38.605Z,9.67
2023-05-05T23:17:43.123Z,10.20
2023-05-05T23:21:53.137Z,9.50
2023-05-05T23:25:59.258Z,9.60
2023-05-05T23:30:03.251Z,10.40
2023-05-05T23:34:06.860Z,9.60
2023-05-05T23:38:10.497Z,9.87
2023-05-05T23:42:15.825Z,9.70
2023-05-05T23:46:19.151Z,9.90
2023-05-05T23:50:23.115Z,9.37
2023-05-05T23:54:26.473Z,10.30
2023-05-05T23:58:32.532Z,10.27
